createdAt,value
2018-02-07T00:02:08.690Z,38.50
2018-02-07T00:04:36.248Z,42.10
2018-02-07T00:07:04.142Z,41.03
2018-02-07T00:09:32.010Z,40.30
2018-02-07T00:11:59.632Z,39.33
2018-02-07T00:14:27.232Z,47.73
2018-02-07T00:16:54.786Z,47.70
2018-02-07T00:19:22.361Z,45.30
2018-02-07T00:21:49.984Z,38.13
2018-02-07T00:24:17.530Z,43.10
2018-02-07T00:26:45.081Z,43.27
2018-02-07T00:29:12.642Z,35.60
2018-02-07T00:31:40.224Z,37.33
2018-02-07T00:34:07.839Z,42.10
2018-02-07T00:36:35.624Z,48.47
2018-02-07T00:39:03.185Z,40.77
2018-02-07T00:41:30.745Z,50.57
2018-02-07T00:43:58.593Z,44.90
2018-02-07T00:46:26.167Z,36.30
2018-02-07T00:48:53.703Z,36.83
2018-02-07T00:51:21.259Z,45.53
2018-02-07T00:53:48.819Z,44.60
2018-02-07T00:56:16.588Z,42.03
2018-02-07T00:58:44.111Z,46.13
2018-02-07T01:01:11.680Z,44.03
2018-02-07T01:03:39.595Z,46.58
2018-02-07T01:06:07.211Z,44.43
2018-02-07T01:08:34.759Z,48.00
2018-02-07T01:11:02.351Z,47.73
2018-02-07T01:13:29.910Z,42.00
2018-02-07T01:15:57.473Z,44.77
2018-02-07T01:18:25.056Z,49.00
2018-02-07T01:20:52.717Z,46.00
2018-02-07T01:23:20.295Z,42.07
2018-02-07T01:25:47.854Z,41.27
2018-02-07T01:28:15.386Z,40.43
2018-02-07T01:30:42.919Z,48.47
2018-02-07T01:33:10.515Z,49.23
2018-02-07T01:35:38.114Z,45.50
2018-02-07T01:38:05.674Z,43.30
2018-02-07T01:40:33.266Z,52.43
2018-02-07T01:43:00.820Z,43.23
2018-02-07T01:45:28.411Z,45.77
2018-02-07T01:47:55.947Z,37.83
2018-02-07T01:50:23.749Z,46.37
2018-02-07T01:52:51.327Z,43.47
2018-02-07T01:55:18.900Z,44.07
2018-02-07T01:57:46.434Z,46.90
2018-02-07T02:00:14.290Z,53.63
2018-02-07T02:02:41.842Z,44.53
2018-02-07T02:07:43.265Z,53.63
2018-02-07T02:10:10.964Z,49.73
2018-02-07T02:12:38.496Z,53.00
2018-02-07T02:15:06.314Z,51.33
2018-02-07T02:17:33.848Z,47.43
2018-02-07T02:20:01.646Z,48.13
2018-02-07T02:22:29.245Z,50.33
2018-02-07T02:24:56.825Z,50.30
2018-02-07T02:27:24.642Z,57.73
2018-02-07T02:29:52.257Z,52.17
2018-02-07T02:32:20.059Z,48.57
2018-02-07T02:34:47.584Z,48.70
2018-02-07T02:37:15.177Z,47.90
2018-02-07T02:39:42.706Z,50.27
2018-02-07T02:42:10.294Z,52.07
2018-02-07T02:44:37.860Z,57.87
2018-02-07T02:47:05.410Z,49.80
2018-02-07T02:49:33.041Z,57.40
2018-02-07T02:52:00.857Z,47.47
2018-02-07T02:54:28.397Z,54.40
2018-02-07T02:56:56.021Z,45.97
2018-02-07T02:59:23.584Z,54.63
2018-02-07T03:01:51.109Z,52.93
2018-02-07T03:04:18.699Z,53.30
2018-02-07T03:06:46.260Z,50.13
2018-02-07T03:09:13.824Z,47.70
2018-02-07T03:11:41.395Z,50.50
2018-02-07T03:14:09.301Z,55.20
2018-02-07T03:16:36.871Z,55.73
2018-02-07T03:19:04.435Z,51.77
2018-02-07T03:21:31.973Z,55.63
2018-02-07T03:23:59.549Z,49.30
2018-02-07T03:26:27.112Z,49.57
2018-02-07T03:28:54.982Z,51.90
2018-02-07T03:31:22.497Z,58.50
2018-02-07T03:33:50.075Z,49.03
2018-02-07T03:36:17.617Z,54.50
2018-02-07T03:38:45.150Z,52.53
2018-02-07T03:41:13.052Z,60.20
2018-02-07T03:43:40.573Z,54.87
2018-02-07T03:46:08.158Z,62.33
2018-02-07T03:48:35.737Z,55.00
2018-02-07T03:51:03.548Z,52.83
2018-02-07T03:53:31.416Z,46.43
2018-02-07T03:55:59.587Z,53.80
2018-02-07T03:58:27.161Z,49.60
2018-02-07T04:00:54.714Z,48.93
2018-02-07T04:03:22.317Z,50.80
2018-02-07T04:05:49.854Z,57.57
2018-02-07T04:08:17.697Z,56.37
2018-02-07T04:10:45.560Z,52.67
2018-02-07T04:13:13.124Z,47.27
2018-02-07T04:15:40.644Z,50.77
2018-02-07T04:18:08.201Z,48.97
2018-02-07T04:20:35.765Z,50.70
2018-02-07T04:23:03.312Z,56.97
2018-02-07T04:25:30.869Z,57.70
2018-02-07T04:27:58.480Z,55.90
2018-02-07T04:30:26.025Z,50.80
2018-02-07T04:32:53.584Z,57.00
2018-02-07T04:35:21.113Z,47.10
2018-02-07T04:37:48.655Z,54.40
2018-02-07T04:40:16.237Z,60.53
2018-02-07T04:42:43.779Z,51.93
2018-02-07T04:45:11.614Z,59.87
2018-02-07T04:47:39.198Z,54.47
2018-02-07T04:50:06.743Z,56.50
2018-02-07T04:52:34.378Z,54.73
2018-02-07T04:55:01.981Z,47.77
2018-02-07T04:57:29.522Z,52.10
2018-02-07T04:59:57.061Z,53.67
2018-02-07T05:02:24.630Z,54.43
2018-02-07T05:04:52.178Z,57.17
2018-02-07T05:07:19.726Z,61.47
2018-02-07T05:09:47.311Z,54.40
2018-02-07T05:12:14.869Z,57.63
2018-02-07T05:14:42.403Z,53.90
2018-02-07T05:17:10.065Z,53.93
2018-02-07T05:19:37.616Z,46.67
2018-02-07T05:22:05.176Z,57.10
2018-02-07T05:24:32.816Z,58.67
2018-02-07T05:27:00.352Z,60.03
2018-02-07T05:29:27.904Z,60.10
2018-02-07T05:31:55.464Z,52.73
2018-02-07T05:34:22.997Z,52.37
2018-02-07T05:36:50.539Z,57.03
2018-02-07T05:39:18.126Z,59.30
2018-02-07T05:41:45.728Z,55.93
2018-02-07T05:44:13.387Z,56.87
2018-02-07T05:46:40.943Z,65.20
2018-02-07T05:49:08.830Z,55.23
2018-02-07T05:51:36.348Z,61.57
2018-02-07T05:54:03.934Z,59.37
2018-02-07T05:56:31.501Z,59.30
2018-02-07T05:58:59.085Z,51.40
2018-02-07T06:01:27.018Z,55.43
2018-02-07T06:03:54.553Z,76.60
2018-02-07T06:06:22.456Z,58.33
2018-02-07T06:08:50.039Z,60.93
2018-02-07T06:11:17.876Z,59.40
2018-02-07T06:13:45.418Z,56.20
2018-02-07T06:16:13.103Z,62.47
2018-02-07T06:18:40.660Z,63.37
2018-02-07T06:21:08.207Z,60.00
2018-02-07T06:23:35.846Z,64.00
2018-02-07T06:26:03.402Z,60.57
2018-02-07T06:28:30.958Z,63.90
2018-02-07T06:30:58.574Z,65.67
2018-02-07T06:33:26.451Z,54.00
2018-02-07T06:35:54.009Z,67.27
2018-02-07T06:38:21.579Z,65.47
2018-02-07T06:40:49.239Z,60.97
2018-02-07T06:43:16.784Z,63.80
2018-02-07T06:45:44.380Z,57.90
2018-02-07T06:48:11.948Z,68.30
2018-02-07T06:50:39.532Z,72.97
2018-02-07T06:53:07.093Z,59.53
2018-02-07T06:55:34.683Z,57.83
2018-02-07T06:58:02.235Z,65.67
2018-02-07T07:00:30.223Z,60.23
2018-02-07T07:02:58.188Z,62.67
2018-02-07T07:05:25.792Z,58.10
2018-02-07T07:07:53.427Z,68.40
2018-02-07T07:10:21.017Z,65.90
2018-02-07T07:12:48.623Z,68.93
2018-02-07T07:15:16.191Z,62.40
2018-02-07T07:17:43.791Z,64.23
2018-02-07T07:20:11.375Z,63.10
2018-02-07T07:22:39.107Z,58.80
2018-02-07T07:25:06.666Z,68.43
2018-02-07T07:27:34.619Z,65.10
2018-02-07T07:30:02.203Z,69.47
2018-02-07T07:32:29.761Z,66.50
2018-02-07T07:34:57.297Z,69.00
2018-02-07T07:37:25.166Z,69.10
2018-02-07T07:39:52.717Z,69.87
2018-02-07T07:42:20.254Z,64.30
2018-02-07T07:44:47.848Z,64.57
2018-02-07T07:47:15.416Z,72.97
2018-02-07T07:49:43.003Z,69.57
2018-02-07T07:52:10.620Z,82.60
2018-02-07T07:54:38.157Z,73.03
2018-02-07T07:57:05.782Z,64.60
2018-02-07T07:59:33.381Z,70.77
2018-02-07T08:02:01.594Z,73.60
2018-02-07T08:04:29.465Z,74.57
2018-02-07T08:06:57.045Z,66.23
2018-02-07T08:09:24.578Z,71.87
2018-02-07T08:11:52.780Z,71.70
2018-02-07T08:14:20.622Z,82.90
2018-02-07T08:16:49.166Z,72.10
2018-02-07T08:19:17.092Z,75.50
2018-02-07T08:21:44.942Z,77.63
2018-02-07T08:24:12.462Z,70.13
2018-02-07T08:26:40.892Z,77.63
2018-02-07T08:29:08.456Z,84.37
2018-02-07T08:31:35.983Z,74.83
2018-02-07T08:34:03.519Z,84.13
2018-02-07T08:36:31.330Z,81.60
2018-02-07T08:38:59.200Z,70.47
2018-02-07T08:41:26.759Z,78.50
2018-02-07T08:43:54.341Z,79.60
2018-02-07T08:46:21.890Z,77.93
2018-02-07T08:48:49.440Z,75.20
2018-02-07T08:51:17.030Z,84.07
2018-02-07T08:53:44.583Z,78.80
2018-02-07T08:56:12.150Z,80.93
2018-02-07T08:58:39.784Z,70.70
2018-02-07T09:01:07.312Z,67.83
2018-02-07T09:03:34.866Z,83.00
2018-02-07T09:06:02.691Z,78.53
2018-02-07T09:08:30.599Z,90.57
2018-02-07T09:10:58.640Z,70.83
2018-02-07T09:13:26.644Z,84.93
2018-02-07T09:15:54.287Z,79.37
2018-02-07T09:18:22.162Z,88.20
2018-02-07T09:20:49.913Z,90.43
2018-02-07T09:23:18.395Z,89.13
2018-02-07T09:25:46.261Z,95.17
2018-02-07T09:28:13.925Z,94.37
2018-02-07T09:30:41.628Z,101.63
2018-02-07T09:33:09.247Z,98.77
2018-02-07T09:35:36.928Z,83.67
2018-02-07T09:38:05.033Z,93.50
2018-02-07T09:40:32.636Z,88.07
2018-02-07T09:43:00.603Z,97.30
2018-02-07T09:45:28.214Z,92.97
2018-02-07T09:47:56.133Z,87.53
2018-02-07T09:50:23.859Z,86.63
2018-02-07T09:52:51.394Z,88.43
2018-02-07T09:55:18.952Z,90.37
2018-02-07T09:57:46.533Z,85.40
2018-02-07T10:00:14.453Z,84.80
2018-02-07T10:02:42.322Z,87.70
2018-02-07T10:05:09.964Z,86.33
2018-02-07T10:07:37.537Z,88.00
2018-02-07T10:10:05.245Z,94.20
2018-02-07T10:12:32.880Z,101.63
2018-02-07T10:15:00.427Z,99.13
2018-02-07T10:17:28.290Z,104.77
2018-02-07T10:19:55.990Z,94.50
2018-02-07T10:22:23.742Z,85.63
2018-02-07T10:24:53.698Z,104.40
2018-02-07T10:27:22.757Z,86.37
2018-02-07T10:29:50.310Z,98.30
2018-02-07T10:32:18.634Z,108.97
2018-02-07T10:34:46.391Z,77.80
2018-02-07T10:37:14.490Z,97.80
2018-02-07T10:39:42.291Z,91.87
2018-02-07T10:42:10.057Z,87.80
2018-02-07T10:44:39.348Z,104.70
2018-02-07T10:47:06.957Z,105.70
2018-02-07T10:49:34.509Z,103.40
2018-02-07T10:52:02.337Z,81.57
2018-02-07T10:54:29.976Z,95.23
2018-02-07T10:56:57.531Z,87.60
2018-02-07T10:59:25.075Z,91.10
2018-02-07T11:01:52.895Z,87.37
2018-02-07T11:04:20.660Z,90.63
2018-02-07T11:06:48.187Z,83.67
2018-02-07T11:09:15.783Z,86.20
2018-02-07T11:11:43.631Z,101.07
2018-02-07T11:14:11.182Z,100.40
2018-02-07T11:16:38.725Z,100.97
2018-02-07T11:19:06.322Z,91.73
2018-02-07T11:21:34.185Z,103.67
2018-02-07T11:24:01.929Z,112.30
2018-02-07T11:26:29.594Z,109.07
2018-02-07T11:28:57.374Z,103.60
2018-02-07T11:31:24.977Z,97.77
2018-02-07T11:33:52.544Z,106.90
2018-02-07T11:36:20.369Z,92.07
2018-02-07T11:38:47.942Z,112.73
2018-02-07T11:41:15.543Z,100.23
2018-02-07T11:43:43.597Z,110.83
2018-02-07T11:46:11.853Z,87.03
2018-02-07T11:48:41.115Z,100.33
2018-02-07T11:51:09.076Z,95.73
2018-02-07T11:53:37.405Z,91.17
2018-02-07T11:56:05.031Z,114.20
2018-02-07T11:58:32.605Z,91.10
2018-02-07T12:01:00.307Z,93.40
2018-02-07T12:03:28.183Z,103.47
2018-02-07T12:05:56.181Z,91.77
2018-02-07T12:08:26.317Z,90.47
2018-02-07T12:10:54.359Z,93.53
2018-02-07T12:13:22.637Z,112.53
2018-02-07T12:15:50.271Z,96.80
2018-02-07T12:18:17.978Z,90.67
2018-02-07T12:20:46.721Z,87.80
2018-02-07T12:23:14.576Z,86.30
2018-02-07T12:25:42.191Z,90.83
2018-02-07T12:28:10.002Z,81.17
2018-02-07T12:30:37.709Z,87.43
2018-02-07T12:33:05.478Z,90.43
2018-02-07T12:35:33.101Z,85.87
2018-02-07T12:38:00.745Z,78.93
2018-02-07T12:40:28.323Z,82.27
2018-02-07T12:42:56.001Z,83.83
2018-02-07T12:45:23.643Z,85.13
2018-02-07T12:47:53.740Z,79.67
2018-02-07T12:50:21.274Z,89.33
2018-02-07T12:52:48.863Z,98.17
2018-02-07T12:55:16.741Z,91.23
2018-02-07T12:57:44.281Z,67.10
2018-02-07T13:00:13.444Z,69.00
2018-02-07T13:02:40.997Z,77.67
2018-02-07T13:05:08.567Z,71.77
2018-02-07T13:07:36.498Z,88.60
2018-02-07T13:10:04.937Z,85.87
2018-02-07T13:12:32.506Z,67.40
2018-02-07T13:15:00.305Z,71.10
2018-02-07T13:17:27.877Z,74.10
2018-02-07T13:19:55.734Z,68.73
2018-02-07T13:22:23.310Z,68.93
2018-02-07T13:24:50.871Z,69.60
2018-02-07T13:27:18.410Z,80.80
2018-02-07T13:29:45.980Z,63.73
2018-02-07T13:32:13.735Z,64.30
2018-02-07T13:34:41.505Z,75.40
2018-02-07T13:37:09.373Z,79.13
2018-02-07T13:39:36.933Z,85.10
2018-02-07T13:42:04.486Z,66.33
2018-02-07T13:44:32.071Z,63.87
2018-02-07T13:46:59.660Z,66.23
2018-02-07T13:49:27.215Z,72.67
2018-02-07T13:51:54.749Z,62.97
2018-02-07T13:54:22.349Z,59.43
2018-02-07T13:56:49.904Z,74.47
2018-02-07T13:59:17.498Z,80.27
2018-02-07T14:01:45.387Z,66.93
2018-02-07T14:04:12.951Z,69.43
2018-02-07T14:06:40.817Z,59.73
2018-02-07T14:09:08.441Z,75.27
2018-02-07T14:11:36.013Z,60.70
2018-02-07T14:14:03.579Z,60.70
2018-02-07T14:16:31.163Z,53.47
2018-02-07T14:18:58.842Z,65.33
2018-02-07T14:21:26.467Z,59.40
2018-02-07T14:23:54.063Z,64.10
2018-02-07T14:26:21.661Z,58.80
2018-02-07T14:28:49.620Z,56.20
2018-02-07T14:31:17.182Z,50.30
2018-02-07T14:33:44.724Z,53.77
2018-02-07T14:36:12.283Z,55.07
2018-02-07T14:38:40.008Z,51.20
2018-02-07T14:41:07.626Z,52.00
2018-02-07T14:43:35.275Z,50.47
2018-02-07T14:46:02.854Z,56.57
2018-02-07T14:48:30.458Z,63.53
2018-02-07T14:50:58.043Z,52.87
2018-02-07T14:53:25.627Z,46.27
2018-02-07T14:55:53.278Z,46.50
2018-02-07T14:58:20.846Z,49.30
2018-02-07T15:00:48.464Z,47.10
2018-02-07T15:03:15.994Z,48.17
2018-02-07T15:05:43.545Z,46.40
2018-02-07T15:08:11.125Z,39.13
2018-02-07T15:10:38.650Z,42.73
2018-02-07T15:13:06.253Z,39.07
2018-02-07T15:15:34.165Z,38.27
2018-02-07T15:18:03.671Z,43.47
2018-02-07T15:20:31.213Z,43.57
2018-02-07T15:22:58.800Z,40.60
2018-02-07T15:25:26.336Z,41.97
2018-02-07T15:27:53.976Z,33.70
2018-02-07T15:30:21.620Z,38.63
2018-02-07T15:32:49.378Z,43.30
2018-02-07T15:35:17.731Z,41.50
2018-02-07T15:37:45.441Z,43.37
2018-02-07T15:40:13.046Z,45.90
2018-02-07T15:42:40.652Z,55.90
2018-02-07T15:45:08.219Z,48.27
2018-02-07T15:47:35.771Z,53.00
2018-02-07T15:50:03.385Z,42.87
2018-02-07T15:52:31.063Z,69.00
2018-02-07T15:54:59.520Z,56.33
2018-02-07T15:57:27.755Z,50.70
2018-02-07T15:59:55.875Z,50.83
2018-02-07T16:02:23.746Z,52.80
2018-02-07T16:04:52.655Z,48.33
2018-02-07T16:07:22.030Z,58.20
2018-02-07T16:09:49.993Z,51.50
2018-02-07T16:12:38.745Z,61.93
2018-02-07T16:15:07.941Z,58.33
2018-02-07T16:17:35.868Z,61.73
2018-02-07T16:20:05.879Z,59.23
2018-02-07T16:22:33.613Z,64.23
2018-02-07T16:25:01.298Z,56.60
2018-02-07T16:27:28.897Z,47.37
2018-02-07T16:29:56.450Z,52.80
2018-02-07T16:32:25.224Z,50.60
2018-02-07T16:34:53.075Z,51.77
2018-02-07T16:37:20.664Z,53.77
2018-02-07T16:39:48.251Z,44.03
2018-02-07T16:42:15.798Z,50.87
2018-02-07T16:44:43.357Z,54.13
2018-02-07T16:47:11.179Z,54.40
2018-02-07T16:49:38.805Z,53.57
2018-02-07T16:52:06.350Z,46.43
2018-02-07T16:54:34.074Z,52.83
2018-02-07T16:57:02.070Z,63.40
2018-02-07T16:59:29.836Z,43.23
2018-02-07T17:01:57.419Z,50.53
2018-02-07T17:04:25.246Z,47.97
2018-02-07T17:06:52.870Z,50.10
2018-02-07T17:09:20.679Z,42.00
2018-02-07T17:11:48.338Z,43.57
2018-02-07T17:14:16.536Z,47.60
2018-02-07T17:16:44.117Z,49.83
2018-02-07T17:19:11.977Z,44.07
2018-02-07T17:21:39.609Z,55.03
2018-02-07T17:24:07.384Z,47.30
2018-02-07T17:26:34.980Z,46.83
2018-02-07T17:29:03.110Z,54.93
2018-02-07T17:31:30.868Z,48.13
2018-02-07T17:33:58.716Z,45.10
2018-02-07T17:36:26.292Z,59.43
2018-02-07T17:38:53.862Z,50.60
2018-02-07T17:41:21.464Z,46.00
2018-02-07T17:43:49.199Z,53.93
2018-02-07T17:46:16.804Z,52.07
2018-02-07T17:48:44.510Z,50.33
2018-02-07T17:51:12.024Z,48.70
2018-02-07T17:53:39.582Z,53.40
2018-02-07T17:56:07.118Z,49.10
2018-02-07T17:58:34.627Z,51.60
2018-02-07T18:01:02.208Z,53.40
2018-02-07T18:03:29.740Z,48.90
2018-02-07T18:05:57.279Z,55.47
2018-02-07T18:08:24.867Z,56.37
2018-02-07T18:10:52.572Z,51.17
2018-02-07T18:13:20.134Z,52.63
2018-02-07T18:15:47.701Z,54.30
2018-02-07T18:18:15.290Z,54.60
2018-02-07T18:20:42.805Z,62.53
2018-02-07T18:23:10.401Z,65.03
2018-02-07T18:25:38.944Z,67.77
2018-02-07T18:28:07.702Z,62.20
2018-02-07T18:30:35.291Z,58.40
2018-02-07T18:33:02.814Z,59.83
2018-02-07T18:35:30.353Z,74.93
2018-02-07T18:37:58.163Z,57.67
2018-02-07T18:40:25.742Z,62.43
2018-02-07T18:42:53.406Z,62.30
2018-02-07T18:45:20.986Z,74.40
2018-02-07T18:47:48.815Z,82.20
2018-02-07T18:50:17.285Z,82.87
2018-02-07T18:52:45.206Z,82.70
2018-02-07T18:55:13.333Z,83.33
2018-02-07T18:57:40.911Z,81.93
2018-02-07T19:00:09.022Z,80.80
2018-02-07T19:02:36.552Z,73.27
2018-02-07T19:05:04.110Z,88.07
2018-02-07T19:07:32.202Z,87.07
2018-02-07T19:10:00.038Z,95.93
2018-02-07T19:12:27.587Z,87.97
2018-02-07T19:14:55.176Z,85.03
2018-02-07T19:17:22.928Z,89.40
2018-02-07T19:19:51.540Z,88.77
2018-02-07T19:22:19.264Z,84.93
2018-02-07T19:24:46.835Z,94.13
2018-02-07T19:27:14.383Z,87.40
2018-02-07T19:29:42.007Z,78.40
2018-02-07T19:32:09.574Z,78.80
2018-02-07T19:34:37.095Z,88.43
2018-02-07T19:37:04.661Z,90.40
2018-02-07T19:39:32.253Z,94.87
2018-02-07T19:41:59.942Z,84.13
2018-02-07T19:44:27.613Z,89.27
2018-02-07T19:46:55.227Z,84.57
2018-02-07T19:49:22.931Z,81.63
2018-02-07T19:51:50.618Z,100.93
2018-02-07T19:54:18.249Z,79.00
2018-02-07T19:56:45.877Z,87.07
2018-02-07T19:59:13.634Z,95.87
2018-02-07T20:01:41.332Z,83.67
2018-02-07T20:04:09.365Z,86.10
2018-02-07T20:06:37.337Z,85.00
2018-02-07T20:09:06.305Z,80.63
2018-02-07T20:11:34.174Z,77.30
2018-02-07T20:14:01.734Z,100.00
2018-02-07T20:16:29.314Z,88.47
2018-02-07T20:18:56.880Z,89.33
2018-02-07T20:21:24.466Z,87.83
2018-02-07T20:23:52.281Z,98.40
2018-02-07T20:26:19.856Z,99.77
2018-02-07T20:28:47.716Z,89.60
2018-02-07T20:31:15.383Z,100.10
2018-02-07T20:33:42.978Z,91.43
2018-02-07T20:36:10.626Z,85.03
2018-02-07T20:38:38.178Z,102.03
2018-02-07T20:41:05.712Z,97.53
2018-02-07T20:43:33.304Z,98.93
2018-02-07T20:46:01.150Z,108.37
2018-02-07T20:48:29.745Z,107.80
2018-02-07T20:50:58.564Z,102.20
2018-02-07T20:53:26.221Z,103.73
2018-02-07T20:55:53.814Z,95.33
2018-02-07T20:58:21.454Z,98.80
2018-02-07T21:00:49.136Z,85.53
2018-02-07T21:03:16.714Z,97.60
2018-02-07T21:05:44.343Z,93.03
2018-02-07T21:08:11.980Z,103.67
2018-02-07T21:10:39.558Z,91.17
2018-02-07T21:13:07.135Z,99.23
2018-02-07T21:15:34.725Z,99.40
2018-02-07T21:18:02.427Z,98.87
2018-02-07T21:20:30.040Z,115.80
2018-02-07T21:22:57.647Z,102.30
2018-02-07T21:25:25.222Z,108.13
2018-02-07T21:27:53.579Z,109.00
2018-02-07T21:30:22.501Z,109.33
2018-02-07T21:32:50.236Z,108.03
2018-02-07T21:35:18.813Z,91.80
2018-02-07T21:37:46.403Z,101.83
2018-02-07T21:40:13.945Z,101.40
2018-02-07T21:42:41.531Z,103.13
2018-02-07T21:45:09.353Z,103.27
2018-02-07T21:47:36.939Z,103.93
2018-02-07T21:50:04.706Z,101.07
2018-02-07T21:52:32.274Z,105.73
2018-02-07T21:54:59.948Z,108.33
2018-02-07T21:57:27.737Z,102.47
2018-02-07T21:59:55.325Z,104.23
2018-02-07T22:02:23.017Z,96.40
2018-02-07T22:04:50.707Z,112.17
2018-02-07T22:07:23.274Z,106.47
2018-02-07T22:09:50.855Z,108.27
2018-02-07T22:12:18.419Z,110.17
2018-02-07T22:14:46.007Z,102.30
2018-02-07T22:17:13.606Z,106.20
2018-02-07T22:19:41.134Z,110.50
2018-02-07T22:22:08.671Z,92.60
2018-02-07T22:24:36.236Z,104.67
2018-02-07T22:27:03.909Z,90.00
2018-02-07T22:29:31.437Z,106.97
2018-02-07T22:31:58.995Z,92.97
2018-02-07T22:34:26.555Z,97.10
2018-02-07T22:36:54.099Z,101.93
2018-02-07T22:39:21.670Z,102.00
2018-02-07T22:41:49.511Z,103.30
2018-02-07T22:44:17.093Z,111.07
2018-02-07T22:46:44.937Z,105.90
2018-02-07T22:49:12.490Z,107.23
2018-02-07T22:51:40.021Z,106.93
2018-02-07T22:54:07.645Z,103.33
2018-02-07T22:56:35.212Z,119.13
2018-02-07T22:59:02.778Z,106.80
2018-02-07T23:01:30.391Z,103.40
2018-02-07T23:03:57.976Z,115.70
2018-02-07T23:06:25.568Z,105.07
2018-02-07T23:08:53.134Z,124.57
2018-02-07T23:11:20.714Z,109.27
2018-02-07T23:13:48.252Z,108.33
2018-02-07T23:16:15.824Z,107.13
2018-02-07T23:18:43.407Z,97.77
2018-02-07T23:21:10.963Z,109.40
2018-02-07T23:23:38.554Z,103.33
2018-02-07T23:26:06.108Z,93.27
2018-02-07T23:28:33.698Z,105.50
2018-02-07T23:31:01.283Z,108.20
2018-02-07T23:33:28.832Z,120.50
2018-02-07T23:35:56.386Z,107.43
2018-02-07T23:38:24.147Z,100.73
2018-02-07T23:40:51.709Z,106.33
2018-02-07T23:43:19.558Z,113.07
2018-02-07T23:45:48.138Z,103.40
2018-02-07T23:48:15.678Z,108.00
2018-02-07T23:50:43.234Z,122.13
2018-02-07T23:53:10.813Z,107.37
2018-02-07T23:55:38.364Z,102.33
2018-02-07T23:58:05.898Z,106.57
